createdAt,value
2022-07-25T00:00:48.447Z,17.13
2022-07-25T00:03:17.019Z,14.25
2022-07-25T00:05:47.932Z,18.58
2022-07-25T00:08:16.539Z,17.92
2022-07-25T00:10:45.061Z,17.13
2022-07-25T00:13:14.743Z,16.23
2022-07-25T00:15:43.327Z,16.85
2022-07-25T00:18:11.978Z,18.42
2022-07-25T00:20:40.254Z,17.17
2022-07-25T00:23:08.925Z,14.88
2022-07-25T00:25:37.381Z,16.73
2022-07-25T00:28:06.022Z,14.57
2022-07-25T00:30:35.699Z,16.10
2022-07-25T00:33:04.069Z,16.50
2022-07-25T00:35:32.406Z,17.25
2022-07-25T00:38:00.724Z,15.98
2022-07-25T00:40:29.182Z,14.73
2022-07-25T00:42:57.548Z,16.50
2022-07-25T00:45:26.177Z,17.30
2022-07-25T00:47:55.916Z,16.00
2022-07-25T00:50:24.521Z,17.20
2022-07-25T00:52:53.208Z,15.65
2022-07-25T00:55:22.997Z,15.55
2022-07-25T00:57:51.256Z,20.05
2022-07-25T01:00:19.912Z,17.23
2022-07-25T01:02:48.930Z,16.45
2022-07-25T01:05:20.614Z,15.07
2022-07-25T01:07:49.151Z,15.93
2022-07-25T01:10:17.467Z,15.32
2022-07-25T01:12:49.158Z,16.27
2022-07-25T01:17:45.848Z,15.35
2022-07-25T01:20:17.043Z,15.73
2022-07-25T01:22:46.001Z,15.25
2022-07-25T01:25:15.340Z,16.42
2022-07-25T01:27:45.136Z,15.88
2022-07-25T01:30:15.751Z,15.15
2022-07-25T01:32:44.909Z,15.23
2022-07-25T01:35:14.195Z,17.98
2022-07-25T01:37:45.448Z,17.08
2022-07-25T01:40:15.276Z,15.23
2022-07-25T01:42:43.757Z,15.82
2022-07-25T01:45:14.213Z,16.80
2022-07-25T01:47:42.555Z,17.08
2022-07-25T01:50:11.543Z,14.98
2022-07-25T01:52:40.691Z,16.60
2022-07-25T01:55:10.921Z,15.43
2022-07-25T01:57:40.318Z,15.60
2022-07-25T02:00:13.425Z,15.90
2022-07-25T02:02:41.711Z,15.50
2022-07-25T02:05:10.954Z,15.55
2022-07-25T02:07:39.487Z,16.83
2022-07-25T02:10:08.941Z,17.08
2022-07-25T02:12:39.640Z,17.80
2022-07-25T02:15:08.963Z,18.88
2022-07-25T02:17:37.283Z,16.27
2022-07-25T02:20:08.024Z,16.98
2022-07-25T02:22:36.295Z,16.40
2022-07-25T02:25:04.898Z,17.23
2022-07-25T02:27:33.158Z,20.10
2022-07-25T02:30:02.765Z,16.48
2022-07-25T02:32:31.038Z,18.60
2022-07-25T02:34:59.506Z,17.70
2022-07-25T02:37:27.809Z,16.33
2022-07-25T02:39:56.060Z,17.20
2022-07-25T02:42:24.347Z,18.02
2022-07-25T02:44:52.754Z,16.52
2022-07-25T02:47:22.460Z,16.38
2022-07-25T02:49:50.791Z,16.05
2022-07-25T02:52:19.111Z,17.58
2022-07-25T02:54:47.392Z,17.48
2022-07-25T02:57:15.936Z,16.92
2022-07-25T02:59:44.204Z,16.73
2022-07-25T03:02:12.547Z,17.92
2022-07-25T03:04:42.223Z,17.58
2022-07-25T03:07:10.467Z,19.23
2022-07-25T03:09:38.768Z,16.75
2022-07-25T03:12:07.463Z,17.25
2022-07-25T03:14:36.142Z,18.02
2022-07-25T03:17:04.600Z,18.50
2022-07-25T03:19:32.896Z,17.92
2022-07-25T03:22:02.472Z,17.25
2022-07-25T03:24:30.735Z,18.25
2022-07-25T03:26:59.058Z,16.80
2022-07-25T03:29:27.290Z,17.40
2022-07-25T03:31:55.926Z,18.52
2022-07-25T03:34:24.650Z,17.85
2022-07-25T03:36:53.161Z,18.98
2022-07-25T03:39:24.502Z,16.92
2022-07-25T03:41:53.507Z,18.85
2022-07-25T03:44:22.296Z,18.10
2022-07-25T03:46:50.898Z,19.80
2022-07-25T03:49:19.521Z,18.70
2022-07-25T03:51:48.139Z,18.38
2022-07-25T03:54:16.373Z,16.83
2022-07-25T03:56:47.739Z,18.73
2022-07-25T03:59:18.229Z,17.65
2022-07-25T04:01:48.322Z,17.50
2022-07-25T04:04:17.370Z,17.65
2022-07-25T04:06:45.927Z,17.73
2022-07-25T04:09:15.724Z,16.45
2022-07-25T04:11:45.544Z,17.10
2022-07-25T04:14:14.369Z,16.08
2022-07-25T04:16:43.003Z,16.00
2022-07-25T04:19:12.104Z,16.58
2022-07-25T04:21:40.697Z,16.65
2022-07-25T04:24:09.706Z,18.40
2022-07-25T04:26:38.397Z,17.65
2022-07-25T04:29:08.019Z,17.92
2022-07-25T04:31:36.707Z,16.42
2022-07-25T04:34:05.531Z,16.20
2022-07-25T04:36:34.249Z,17.15
2022-07-25T04:39:02.497Z,17.13
2022-07-25T04:41:31.315Z,16.75
2022-07-25T04:43:59.596Z,18.55
2022-07-25T04:46:29.275Z,17.92
2022-07-25T04:48:57.615Z,18.30
2022-07-25T04:51:25.938Z,17.83
2022-07-25T04:53:54.406Z,16.45
2022-07-25T04:56:22.641Z,20.15
2022-07-25T04:58:50.957Z,18.00
2022-07-25T05:01:19.381Z,17.85
2022-07-25T05:03:50.303Z,18.17
2022-07-25T05:06:19.574Z,17.35
2022-07-25T05:08:48.256Z,17.67
2022-07-25T05:11:16.628Z,20.00
2022-07-25T05:13:44.866Z,17.40
2022-07-25T05:16:13.276Z,16.95
2022-07-25T05:18:41.698Z,14.90
2022-07-25T05:21:13.536Z,15.38
2022-07-25T05:23:42.644Z,15.30
2022-07-25T05:26:10.901Z,16.30
2022-07-25T05:28:39.499Z,17.73
2022-07-25T05:31:08.014Z,16.02
2022-07-25T05:33:36.411Z,17.25
2022-07-25T05:36:05.256Z,17.67
2022-07-25T05:38:34.898Z,20.27
2022-07-25T05:41:03.641Z,17.52
2022-07-25T05:43:32.046Z,18.25
2022-07-25T05:46:03.922Z,15.50
2022-07-25T05:48:32.614Z,15.52
2022-07-25T05:51:01.840Z,14.75
2022-07-25T05:53:30.141Z,18.20
2022-07-25T05:56:01.071Z,14.60
2022-07-25T05:58:30.171Z,14.25
2022-07-25T06:00:58.816Z,13.80
2022-07-25T06:03:27.469Z,16.42
2022-07-25T06:05:57.410Z,13.40
2022-07-25T06:08:28.647Z,15.88
2022-07-25T06:10:59.631Z,13.80
2022-07-25T06:13:28.959Z,14.30
2022-07-25T06:15:57.552Z,15.50
2022-07-25T06:18:26.735Z,14.73
2022-07-25T06:20:55.161Z,15.43
2022-07-25T06:23:23.558Z,13.45
2022-07-25T06:25:56.027Z,14.05
2022-07-25T06:28:25.649Z,14.95
2022-07-25T06:30:54.109Z,17.35
2022-07-25T06:33:22.581Z,14.43
2022-07-25T06:35:50.875Z,14.77
2022-07-25T06:38:19.764Z,14.70
2022-07-25T06:40:48.123Z,14.23
2022-07-25T06:43:16.355Z,13.90
2022-07-25T06:45:47.672Z,12.98
2022-07-25T06:48:16.145Z,13.90
2022-07-25T06:50:44.764Z,13.48
2022-07-25T06:53:13.012Z,13.88
2022-07-25T06:55:41.300Z,13.73
2022-07-25T06:58:10.003Z,16.70
2022-07-25T07:00:38.396Z,18.83
2022-07-25T07:03:08.530Z,22.20
2022-07-25T07:05:37.595Z,16.85
2022-07-25T07:08:06.552Z,19.92
2022-07-25T07:10:35.790Z,23.50
2022-07-25T07:13:05.737Z,22.30
2022-07-25T07:15:36.679Z,25.88
2022-07-25T07:18:08.447Z,24.65
2022-07-25T07:20:37.127Z,23.13
2022-07-25T07:23:05.634Z,18.30
2022-07-25T07:25:34.335Z,29.27
2022-07-25T07:28:02.868Z,23.52
2022-07-25T07:30:58.552Z,31.17
2022-07-25T07:33:21.738Z,30.38
2022-07-25T07:35:50.098Z,30.52
2022-07-25T07:38:18.412Z,27.33
2022-07-25T07:40:46.710Z,29.58
2022-07-25T07:43:15.308Z,23.05
2022-07-25T07:45:44.439Z,24.40
2022-07-25T07:48:13.005Z,32.55
2022-07-25T07:50:42.728Z,28.23
2022-07-25T07:53:10.987Z,25.02
2022-07-25T07:55:44.105Z,19.10
2022-07-25T07:58:15.583Z,34.95
2022-07-25T08:00:45.880Z,27.40
2022-07-25T08:03:14.666Z,20.00
2022-07-25T08:05:45.871Z,19.95
2022-07-25T08:08:15.773Z,24.85
2022-07-25T08:10:46.607Z,20.63
2022-07-25T08:13:16.568Z,17.55
2022-07-25T08:15:46.616Z,20.05
2022-07-25T08:18:17.076Z,19.80
2022-07-25T08:20:48.088Z,19.88
2022-07-25T08:23:16.659Z,20.58
2022-07-25T08:25:45.411Z,17.48
2022-07-25T08:28:14.502Z,17.95
2022-07-25T08:30:43.717Z,17.23
2022-07-25T08:33:15.951Z,15.55
2022-07-25T08:35:49.626Z,18.25
2022-07-25T08:38:18.282Z,19.55
2022-07-25T08:40:46.870Z,17.33
2022-07-25T08:43:16.416Z,18.80
2022-07-25T08:45:48.031Z,17.02
2022-07-25T08:48:19.161Z,15.70
2022-07-25T08:50:49.592Z,15.50
2022-07-25T08:53:36.094Z,16.30
2022-07-25T08:56:20.491Z,14.48
2022-07-25T08:58:50.886Z,18.55
2022-07-25T09:01:19.549Z,16.58
2022-07-25T09:03:48.067Z,16.73
2022-07-25T09:06:21.806Z,15.30
2022-07-25T09:08:58.185Z,14.88
2022-07-25T09:11:32.000Z,17.17
2022-07-25T09:14:02.544Z,16.05
2022-07-25T09:16:35.551Z,15.10
2022-07-25T09:19:16.304Z,15.80
2022-07-25T09:21:47.724Z,15.60
2022-07-25T09:24:22.789Z,15.45
2022-07-25T09:26:53.326Z,15.95
2022-07-25T09:29:24.803Z,14.73
2022-07-25T09:31:55.368Z,19.35
2022-07-25T09:34:39.026Z,15.07
2022-07-25T09:37:12.269Z,16.50
2022-07-25T09:39:46.409Z,16.88
2022-07-25T09:42:26.472Z,16.38
2022-07-25T09:45:03.197Z,15.45
2022-07-25T09:47:32.931Z,15.25
2022-07-25T09:50:01.654Z,15.52
2022-07-25T09:52:31.644Z,14.73
2022-07-25T09:55:02.766Z,14.90
2022-07-25T09:57:31.179Z,14.90
2022-07-25T10:00:01.416Z,14.73
2022-07-25T10:02:41.309Z,18.05
2022-07-25T10:05:15.466Z,14.48
2022-07-25T10:07:48.310Z,15.32
2022-07-25T10:10:28.106Z,14.32
2022-07-25T10:13:09.699Z,16.13
2022-07-25T10:15:44.173Z,14.88
2022-07-25T10:18:14.281Z,13.25
2022-07-25T10:20:43.523Z,14.55
2022-07-25T10:23:24.381Z,14.68
2022-07-25T10:26:03.797Z,16.23
2022-07-25T10:28:41.570Z,15.98
2022-07-25T10:31:25.546Z,14.43
2022-07-25T10:33:56.202Z,14.23
2022-07-25T10:36:30.213Z,15.30
2022-07-25T10:39:02.249Z,15.43
2022-07-25T10:41:31.012Z,16.00
2022-07-25T10:44:03.706Z,14.95
2022-07-25T10:46:36.363Z,12.57
2022-07-25T10:49:07.048Z,13.95
2022-07-25T10:51:41.578Z,13.80
2022-07-25T10:54:16.132Z,13.05
2022-07-25T10:56:54.383Z,16.10
2022-07-25T10:59:31.418Z,15.40
2022-07-25T11:02:01.018Z,13.13
2022-07-25T11:04:29.742Z,15.05
2022-07-25T11:06:58.625Z,14.20
2022-07-25T11:09:29.945Z,14.38
2022-07-25T11:12:01.793Z,13.68
2022-07-25T11:14:33.327Z,14.35
2022-07-25T11:17:13.801Z,14.88
2022-07-25T11:19:43.423Z,12.73
2022-07-25T11:22:12.448Z,13.75
2022-07-25T11:24:43.559Z,14.13
2022-07-25T11:27:13.386Z,15.68
2022-07-25T11:29:42.305Z,12.15
2022-07-25T11:32:12.410Z,12.50
2022-07-25T11:34:43.424Z,11.50
2022-07-25T11:37:14.377Z,12.05
2022-07-25T11:39:45.951Z,10.50
2022-07-25T11:42:16.737Z,11.85
2022-07-25T11:44:48.104Z,14.68
2022-07-25T11:47:28.480Z,13.27
2022-07-25T11:49:59.097Z,13.82
2022-07-25T11:52:30.938Z,10.70
2022-07-25T11:55:01.932Z,11.55
2022-07-25T11:57:33.501Z,8.38
2022-07-25T12:02:37.838Z,8.02
2022-07-25T12:05:08.127Z,8.73
2022-07-25T12:07:41.868Z,9.02
2022-07-25T12:10:16.996Z,11.45
2022-07-25T12:12:51.721Z,9.07
2022-07-25T12:15:23.071Z,10.15
2022-07-25T12:17:53.021Z,11.10
2022-07-25T12:20:23.325Z,8.65
2022-07-25T12:22:53.264Z,8.25
2022-07-25T12:25:27.563Z,9.38
2022-07-25T12:27:59.867Z,9.18
2022-07-25T12:30:28.999Z,9.63
2022-07-25T12:32:58.562Z,10.40
2022-07-25T12:35:27.256Z,9.05
2022-07-25T12:37:55.939Z,9.73
2022-07-25T12:40:25.851Z,8.95
2022-07-25T12:42:54.039Z,10.00
2022-07-25T12:45:23.185Z,9.85
2022-07-25T12:47:51.644Z,8.88
2022-07-25T12:50:20.247Z,9.23
2022-07-25T12:52:48.858Z,9.75
2022-07-25T12:55:18.639Z,10.57
2022-07-25T12:57:49.023Z,9.07
2022-07-25T13:00:18.940Z,10.82
2022-07-25T13:02:47.656Z,11.02
2022-07-25T13:05:16.055Z,11.48
2022-07-25T13:07:44.388Z,9.15
2022-07-25T13:10:12.886Z,9.60
2022-07-25T13:12:41.247Z,11.98
2022-07-25T13:15:11.630Z,13.25
2022-07-25T13:17:40.862Z,9.57
2022-07-25T13:20:11.049Z,10.63
2022-07-25T13:22:39.374Z,9.52
2022-07-25T13:25:08.522Z,10.32
2022-07-25T13:27:38.163Z,10.18
2022-07-25T13:30:09.009Z,12.77
2022-07-25T13:32:38.676Z,9.13
2022-07-25T13:35:07.801Z,11.48
2022-07-25T13:37:36.129Z,10.60
2022-07-25T13:40:05.145Z,10.00
2022-07-25T13:42:33.356Z,10.13
2022-07-25T13:45:01.651Z,10.73
2022-07-25T13:47:30.624Z,9.82
2022-07-25T13:50:00.283Z,9.95
2022-07-25T13:52:28.938Z,10.25
2022-07-25T13:54:57.200Z,10.25
2022-07-25T13:57:25.468Z,9.75
2022-07-25T13:59:54.125Z,9.52
2022-07-25T14:02:22.544Z,11.25
2022-07-25T14:04:51.201Z,9.25
2022-07-25T14:07:20.878Z,11.15
2022-07-25T14:09:49.468Z,8.18
2022-07-25T14:12:17.841Z,9.30
2022-07-25T14:14:46.108Z,9.98
2022-07-25T14:17:14.432Z,8.88
2022-07-25T14:19:43.048Z,9.85
2022-07-25T14:22:11.621Z,9.00
2022-07-25T14:24:41.783Z,9.80
2022-07-25T14:27:10.752Z,8.25
2022-07-25T14:29:39.601Z,9.52
2022-07-25T14:32:08.896Z,11.40
2022-07-25T14:34:37.982Z,9.95
2022-07-25T14:37:07.549Z,9.68
2022-07-25T14:39:37.442Z,9.68
2022-07-25T14:42:09.352Z,9.32
2022-07-25T14:44:37.927Z,7.80
2022-07-25T14:47:11.930Z,9.55
2022-07-25T14:49:42.014Z,8.52
2022-07-25T14:52:11.408Z,10.55
2022-07-25T14:54:40.224Z,8.52
2022-07-25T14:57:10.922Z,9.93
2022-07-25T14:59:39.525Z,6.90
2022-07-25T15:02:08.286Z,6.88
2022-07-25T15:04:36.906Z,8.18
2022-07-25T15:07:05.671Z,8.25
2022-07-25T15:09:34.378Z,7.53
2022-07-25T15:12:03.057Z,7.38
2022-07-25T15:14:33.029Z,7.22
2022-07-25T15:17:01.627Z,8.05
2022-07-25T15:19:30.549Z,8.07
2022-07-25T15:21:59.426Z,8.02
2022-07-25T15:24:29.379Z,8.05
2022-07-25T15:26:58.082Z,7.38
2022-07-25T15:29:27.848Z,10.02
2022-07-25T15:31:57.778Z,8.68
2022-07-25T15:34:26.413Z,6.45
2022-07-25T15:36:56.347Z,7.53
2022-07-25T15:39:24.987Z,10.35
2022-07-25T15:41:53.579Z,6.53
2022-07-25T15:44:22.073Z,10.02
2022-07-25T15:46:50.427Z,6.75
2022-07-25T15:49:21.918Z,6.53
2022-07-25T15:51:50.845Z,6.65
2022-07-25T15:54:19.385Z,7.55
2022-07-25T15:56:48.059Z,7.53
2022-07-25T15:59:16.749Z,6.32
2022-07-25T16:01:45.392Z,6.10
2022-07-25T16:04:14.079Z,6.45
2022-07-25T16:06:44.543Z,8.57
2022-07-25T16:09:13.380Z,5.68
2022-07-25T16:11:41.578Z,7.90
2022-07-25T16:14:10.170Z,6.25
2022-07-25T16:16:38.865Z,5.82
2022-07-25T16:19:09.759Z,5.68
2022-07-25T16:21:39.876Z,6.50
2022-07-25T16:24:11.031Z,6.07
2022-07-25T16:26:39.425Z,6.57
2022-07-25T16:29:08.394Z,7.28
2022-07-25T16:31:36.992Z,5.15
2022-07-25T16:34:05.692Z,4.30
2022-07-25T16:36:33.981Z,5.43
2022-07-25T16:39:03.148Z,6.88
2022-07-25T16:41:32.870Z,7.82
2022-07-25T16:44:01.555Z,5.50
2022-07-25T16:46:30.008Z,6.15
2022-07-25T16:48:58.435Z,6.38
2022-07-25T16:51:26.809Z,9.68
2022-07-25T16:53:55.265Z,6.72
2022-07-25T16:56:23.628Z,5.55
2022-07-25T16:58:53.905Z,6.65
2022-07-25T17:01:22.305Z,8.05
2022-07-25T17:03:50.712Z,6.93
2022-07-25T17:06:19.057Z,7.13
2022-07-25T17:08:47.721Z,7.28
2022-07-25T17:11:16.093Z,8.30
2022-07-25T17:13:44.432Z,6.82
2022-07-25T17:16:14.156Z,7.35
2022-07-25T17:18:42.501Z,8.80
2022-07-25T17:21:10.822Z,9.55
2022-07-25T17:23:39.115Z,9.90
2022-07-25T17:26:07.626Z,7.82
2022-07-25T17:28:36.311Z,8.68
2022-07-25T17:31:04.694Z,8.52
2022-07-25T17:33:34.437Z,9.38
2022-07-25T17:36:02.689Z,9.18
2022-07-25T17:38:34.863Z,10.10
2022-07-25T17:41:03.522Z,9.73
2022-07-25T17:43:31.896Z,9.13
2022-07-25T17:46:00.291Z,9.98
2022-07-25T17:48:28.722Z,10.35
2022-07-25T17:50:58.436Z,9.63
2022-07-25T17:53:26.855Z,9.30
2022-07-25T17:55:55.154Z,10.23
2022-07-25T17:58:23.512Z,8.85
2022-07-25T18:00:51.776Z,8.88
2022-07-25T18:03:20.223Z,8.93
2022-07-25T18:05:48.534Z,9.60
2022-07-25T18:08:18.232Z,10.73
2022-07-25T18:10:46.482Z,8.38
2022-07-25T18:13:17.604Z,8.38
2022-07-25T18:15:46.059Z,9.27
2022-07-25T18:18:20.016Z,8.60
2022-07-25T18:20:49.048Z,11.50
2022-07-25T18:23:18.844Z,9.45
2022-07-25T18:25:47.339Z,9.50
2022-07-25T18:28:15.960Z,8.15
2022-07-25T18:30:44.451Z,10.88
2022-07-25T18:33:12.974Z,9.13
2022-07-25T18:35:41.280Z,9.77
2022-07-25T18:38:11.556Z,9.65
2022-07-25T18:40:41.198Z,11.20
2022-07-25T18:43:10.087Z,10.68
2022-07-25T18:45:39.529Z,119.90
2022-07-25T18:48:08.555Z,212.15
2022-07-25T18:50:37.192Z,174.73
2022-07-25T18:53:05.797Z,252.88
2022-07-25T18:55:34.400Z,277.15
2022-07-25T18:58:04.139Z,212.32
2022-07-25T19:00:32.746Z,156.90
2022-07-25T19:03:01.261Z,118.28
2022-07-25T19:05:29.802Z,301.58
2022-07-25T19:08:01.082Z,250.20
2022-07-25T19:10:29.554Z,284.50
2022-07-25T19:12:58.614Z,281.55
2022-07-25T19:15:28.591Z,249.95
2022-07-25T19:17:57.595Z,228.05
2022-07-25T19:20:27.136Z,80.85
2022-07-25T19:22:55.695Z,65.38
2022-07-25T19:25:24.349Z,55.67
2022-07-25T19:27:52.898Z,50.47
2022-07-25T19:30:21.527Z,38.05
2022-07-25T19:32:51.157Z,31.00
2022-07-25T19:35:25.840Z,32.72
2022-07-25T19:37:54.949Z,27.50
2022-07-25T19:40:23.543Z,26.10
2022-07-25T19:42:52.176Z,20.65
2022-07-25T19:45:20.833Z,18.00
2022-07-25T19:47:51.062Z,20.73
2022-07-25T19:50:19.680Z,18.85
2022-07-25T19:52:48.542Z,16.33
2022-07-25T19:55:17.314Z,14.68
2022-07-25T19:57:45.951Z,14.38
2022-07-25T20:00:16.850Z,13.70
2022-07-25T20:02:45.619Z,14.18
2022-07-25T20:05:15.552Z,14.02
2022-07-25T20:07:44.222Z,15.07
2022-07-25T20:10:12.809Z,12.65
2022-07-25T20:12:47.106Z,13.27
2022-07-25T20:15:15.866Z,12.60
2022-07-25T20:17:44.470Z,13.25
2022-07-25T20:20:13.398Z,12.45
2022-07-25T20:22:44.488Z,12.52
2022-07-25T20:25:16.634Z,12.68
2022-07-25T20:27:45.385Z,13.82
2022-07-25T20:30:14.359Z,11.23
2022-07-25T20:32:43.008Z,12.57
2022-07-25T20:35:11.626Z,12.25
2022-07-25T20:37:40.274Z,12.70
2022-07-25T20:40:12.476Z,11.50
2022-07-25T20:42:41.120Z,12.48
2022-07-25T20:45:10.300Z,13.35
2022-07-25T20:47:38.940Z,10.55
2022-07-25T20:50:09.440Z,10.48
2022-07-25T20:52:39.394Z,12.27
2022-07-25T20:55:09.142Z,10.00
2022-07-25T20:57:39.122Z,11.20
2022-07-25T21:00:08.640Z,11.15
2022-07-25T21:02:37.314Z,9.25
2022-07-25T21:05:06.278Z,12.55
2022-07-25T21:07:34.942Z,12.23
2022-07-25T21:10:03.686Z,12.30
2022-07-25T21:12:32.969Z,10.38
2022-07-25T21:15:03.452Z,9.65
2022-07-25T21:17:32.106Z,11.68
2022-07-25T21:20:00.880Z,9.32
2022-07-25T21:22:29.596Z,8.10
2022-07-25T21:24:58.381Z,9.43
2022-07-25T21:27:27.107Z,11.68
2022-07-25T21:29:55.880Z,9.35
2022-07-25T21:32:25.866Z,11.82
2022-07-25T21:34:54.462Z,13.00
2022-07-25T21:37:23.088Z,102.25
2022-07-25T21:39:51.742Z,188.65
2022-07-25T21:42:20.345Z,243.13
2022-07-25T21:44:48.927Z,196.90
2022-07-25T21:47:17.533Z,259.10
2022-07-25T21:50:04.945Z,150.77
2022-07-25T21:52:34.763Z,112.72
2022-07-25T21:55:04.589Z,92.35
2022-07-25T21:57:33.301Z,86.43
2022-07-25T22:00:02.228Z,72.28
2022-07-25T22:02:31.712Z,121.70
2022-07-25T22:05:01.658Z,116.97
2022-07-25T22:07:30.326Z,164.25
2022-07-25T22:09:59.020Z,244.27
2022-07-25T22:12:27.601Z,230.13
2022-07-25T22:14:56.220Z,206.18
2022-07-25T22:17:24.865Z,161.10
2022-07-25T22:19:53.853Z,136.68
2022-07-25T22:22:23.981Z,123.82
2022-07-25T22:24:52.631Z,99.95
2022-07-25T22:27:21.404Z,86.50
2022-07-25T22:29:50.044Z,85.07
2022-07-25T22:32:18.673Z,82.88
2022-07-25T22:34:47.265Z,74.50
2022-07-25T22:37:15.861Z,60.88
2022-07-25T22:39:45.875Z,51.78
2022-07-25T22:42:16.381Z,48.95
2022-07-25T22:44:45.178Z,47.67
2022-07-25T22:47:13.805Z,29.73
2022-07-25T22:49:42.379Z,26.20
2022-07-25T22:52:11.029Z,29.92
2022-07-25T22:54:39.642Z,28.83
2022-07-25T22:57:09.888Z,21.75
2022-07-25T22:59:38.487Z,19.77
2022-07-25T23:02:07.194Z,18.23
2022-07-25T23:04:35.939Z,16.15
2022-07-25T23:07:04.664Z,16.75
2022-07-25T23:09:36.317Z,17.15
2022-07-25T23:12:05.718Z,13.48
2022-07-25T23:14:35.663Z,15.10
2022-07-25T23:17:20.103Z,11.38
2022-07-25T23:19:50.256Z,12.23
2022-07-25T23:22:19.155Z,10.82
2022-07-25T23:24:47.975Z,12.10
2022-07-25T23:27:16.891Z,10.15
2022-07-25T23:29:46.831Z,9.07
2022-07-25T23:32:15.552Z,9.98
2022-07-25T23:34:44.146Z,10.02
2022-07-25T23:37:12.837Z,9.07
2022-07-25T23:39:41.407Z,8.75
2022-07-25T23:42:10.041Z,10.50
2022-07-25T23:44:40.904Z,9.57
2022-07-25T23:47:10.929Z,8.23
2022-07-25T23:49:39.623Z,9.07
2022-07-25T23:52:08.196Z,7.53
2022-07-25T23:54:38.248Z,12.18
2022-07-25T23:57:07.176Z,8.43
2022-07-25T23:59:36.157Z,11.20
